sensor_id;sensor_type;location;lat;lon;timestamp;pressure;altitude;pressure_sealevel;temperature;humidity
59106;BME280;44891;50.204;8.132;2022-09-29T00:00:48;96693.78;;;5.53;95.57
59106;BME280;44891;50.204;8.132;2022-09-29T00:04:50;96694.69;;;5.64;95.78
59106;BME280;44891;50.204;8.132;2022-09-29T00:08:55;96693.22;;;5.73;95.15
59106;BME280;44891;50.204;8.132;2022-09-29T00:12:58;96697.34;;;5.47;95.31
59106;BME280;44891;50.204;8.132;2022-09-29T00:17:00;96682.94;;;5.17;96.71
59106;BME280;44891;50.204;8.132;2022-09-29T00:21:04;96695.25;;;5.22;97.34
59106;BME280;44891;50.204;8.132;2022-09-29T00:25:07;96697.97;;;5.32;96.74
59106;BME280;44891;50.204;8.132;2022-09-29T00:29:09;96691.63;;;5.45;95.54
59106;BME280;44891;50.204;8.132;2022-09-29T00:33:11;96692.75;;;5.32;95.31
59106;BME280;44891;50.204;8.132;2022-09-29T00:37:13;96692.94;;;5.26;95.84
59106;BME280;44891;50.204;8.132;2022-09-29T00:41:17;96695.00;;;5.45;95.01
59106;BME280;44891;50.204;8.132;2022-09-29T00:45:21;96689.38;;;5.32;95.51
59106;BME280;44891;50.204;8.132;2022-09-29T00:49:26;96690.75;;;5.17;96.01
59106;BME280;44891;50.204;8.132;2022-09-29T00:53:30;96684.88;;;5.27;94.96
59106;BME280;44891;50.204;8.132;2022-09-29T00:57:38;96684.59;;;5.24;94.93
59106;BME280;44891;50.204;8.132;2022-09-29T01:01:43;96682.25;;;5.05;95.46
59106;BME280;44891;50.204;8.132;2022-09-29T01:05:46;96690.81;;;4.84;95.84
59106;BME280;44891;50.204;8.132;2022-09-29T01:09:52;96689.09;;;4.89;96.09
59106;BME280;44891;50.204;8.132;2022-09-29T01:13:59;96683.28;;;5.04;94.65
59106;BME280;44891;50.204;8.132;2022-09-29T01:18:03;96679.75;;;4.94;94.74
59106;BME280;44891;50.204;8.132;2022-09-29T01:22:11;96679.28;;;4.97;93.92
59106;BME280;44891;50.204;8.132;2022-09-29T01:26:48;96678.81;;;5.00;94.27
59106;BME280;44891;50.204;8.132;2022-09-29T01:31:06;96679.13;;;5.03;93.77
59106;BME280;44891;50.204;8.132;2022-09-29T01:35:16;96684.31;;;5.03;93.37
59106;BME280;44891;50.204;8.132;2022-09-29T01:39:26;96686.06;;;4.98;93.42
59106;BME280;44891;50.204;8.132;2022-09-29T01:43:33;96683.53;;;5.03;92.99
59106;BME280;44891;50.204;8.132;2022-09-29T01:47:39;96677.75;;;4.62;94.04
59106;BME280;44891;50.204;8.132;2022-09-29T01:51:51;96688.13;;;4.62;94.11
59106;BME280;44891;50.204;8.132;2022-09-29T01:55:58;96687.34;;;4.78;93.76
59106;BME280;44891;50.204;8.132;2022-09-29T02:00:04;96691.59;;;4.68;94.73
59106;BME280;44891;50.204;8.132;2022-09-29T02:04:17;96694.22;;;4.68;95.04
59106;BME280;44891;50.204;8.132;2022-09-29T02:08:26;96692.03;;;4.43;95.87
59106;BME280;44891;50.204;8.132;2022-09-29T02:12:33;96681.69;;;4.48;96.12
59106;BME280;44891;50.204;8.132;2022-09-29T02:16:40;96693.81;;;4.59;95.24
59106;BME280;44891;50.204;8.132;2022-09-29T02:20:47;96692.72;;;4.38;96.26
59106;BME280;44891;50.204;8.132;2022-09-29T02:24:51;96693.34;;;4.62;95.91
59106;BME280;44891;50.204;8.132;2022-09-29T02:28:55;96700.91;;;4.47;95.64
59106;BME280;44891;50.204;8.132;2022-09-29T02:32:57;96690.06;;;4.50;95.50
59106;BME280;44891;50.204;8.132;2022-09-29T02:37:05;96690.91;;;4.39;95.24
59106;BME280;44891;50.204;8.132;2022-09-29T02:41:22;96696.41;;;4.25;95.77
59106;BME280;44891;50.204;8.132;2022-09-29T02:45:34;96695.38;;;4.26;95.71
59106;BME280;44891;50.204;8.132;2022-09-29T02:49:53;96694.50;;;4.21;96.34
59106;BME280;44891;50.204;8.132;2022-09-29T02:54:15;96695.94;;;4.28;95.51
59106;BME280;44891;50.204;8.132;2022-09-29T02:58:26;96698.91;;;4.20;95.77
59106;BME280;44891;50.204;8.132;2022-09-29T03:02:29;96710.97;;;4.26;95.48
59106;BME280;44891;50.204;8.132;2022-09-29T03:06:31;96703.25;;;4.48;94.85
59106;BME280;44891;50.204;8.132;2022-09-29T03:10:34;96695.31;;;4.38;94.89
59106;BME280;44891;50.204;8.132;2022-09-29T03:14:36;96694.78;;;4.36;94.56
59106;BME280;44891;50.204;8.132;2022-09-29T03:18:38;96694.13;;;4.46;94.31
59106;BME280;44891;50.204;8.132;2022-09-29T03:22:40;96691.94;;;4.38;94.60
59106;BME280;44891;50.204;8.132;2022-09-29T03:26:44;96693.91;;;4.30;94.28
59106;BME280;44891;50.204;8.132;2022-09-29T03:30:46;96696.03;;;4.17;94.50
59106;BME280;44891;50.204;8.132;2022-09-29T03:34:48;96694.41;;;4.16;93.68
59106;BME280;44891;50.204;8.132;2022-09-29T03:38:50;96691.25;;;3.97;94.42
59106;BME280;44891;50.204;8.132;2022-09-29T03:42:53;96689.31;;;4.04;95.12
59106;BME280;44891;50.204;8.132;2022-09-29T03:46:55;96696.22;;;3.98;94.01
59106;BME280;44891;50.204;8.132;2022-09-29T03:50:58;96694.25;;;4.05;94.08
59106;BME280;44891;50.204;8.132;2022-09-29T03:55:00;96698.53;;;4.12;94.17
59106;BME280;44891;50.204;8.132;2022-09-29T03:59:03;96702.84;;;4.06;93.83
59106;BME280;44891;50.204;8.132;2022-09-29T04:03:08;96707.66;;;4.14;94.41
59106;BME280;44891;50.204;8.132;2022-09-29T04:07:10;96708.50;;;4.03;95.64
59106;BME280;44891;50.204;8.132;2022-09-29T04:11:13;96717.31;;;3.73;96.16
59106;BME280;44891;50.204;8.132;2022-09-29T04:15:16;96719.13;;;3.73;96.08
59106;BME280;44891;50.204;8.132;2022-09-29T04:19:18;96724.31;;;3.73;96.71
59106;BME280;44891;50.204;8.132;2022-09-29T04:23:20;96727.41;;;3.87;96.15
59106;BME280;44891;50.204;8.132;2022-09-29T04:27:23;96720.91;;;4.01;95.92
59106;BME280;44891;50.204;8.132;2022-09-29T04:31:27;96720.03;;;3.95;95.73
59106;BME280;44891;50.204;8.132;2022-09-29T04:35:29;96726.59;;;3.98;94.82
59106;BME280;44891;50.204;8.132;2022-09-29T04:39:31;96734.44;;;3.74;96.58
59106;BME280;44891;50.204;8.132;2022-09-29T04:43:33;96723.53;;;3.72;96.62
59106;BME280;44891;50.204;8.132;2022-09-29T04:47:37;96733.16;;;3.89;95.86
59106;BME280;44891;50.204;8.132;2022-09-29T04:51:39;96721.69;;;3.85;96.50
59106;BME280;44891;50.204;8.132;2022-09-29T04:55:41;96724.22;;;3.96;95.70
59106;BME280;44891;50.204;8.132;2022-09-29T04:59:43;96724.69;;;3.93;94.75
59106;BME280;44891;50.204;8.132;2022-09-29T05:03:46;96722.06;;;3.76;95.37
59106;BME280;44891;50.204;8.132;2022-09-29T05:07:48;96725.44;;;3.77;96.11
59106;BME280;44891;50.204;8.132;2022-09-29T05:11:50;96731.00;;;3.97;95.72
59106;BME280;44891;50.204;8.132;2022-09-29T05:15:55;96743.75;;;3.99;95.02
59106;BME280;44891;50.204;8.132;2022-09-29T05:19:59;96747.03;;;3.94;95.00
59106;BME280;44891;50.204;8.132;2022-09-29T05:24:01;96730.53;;;3.60;95.53
59106;BME280;44891;50.204;8.132;2022-09-29T05:28:03;96742.81;;;3.76;95.21
59106;BME280;44891;50.204;8.132;2022-09-29T05:32:05;96752.72;;;3.79;94.03
59106;BME280;44891;50.204;8.132;2022-09-29T05:36:10;96744.84;;;3.74;93.59
59106;BME280;44891;50.204;8.132;2022-09-29T05:40:13;96756.88;;;3.52;95.78
59106;BME280;44891;50.204;8.132;2022-09-29T05:44:15;96751.66;;;3.52;95.30
59106;BME280;44891;50.204;8.132;2022-09-29T05:48:17;96764.31;;;3.37;95.21
59106;BME280;44891;50.204;8.132;2022-09-29T05:52:20;96755.06;;;3.29;96.55
59106;BME280;44891;50.204;8.132;2022-09-29T05:56:24;96755.97;;;3.35;96.52
59106;BME280;44891;50.204;8.132;2022-09-29T06:00:27;96743.78;;;3.35;95.56
59106;BME280;44891;50.204;8.132;2022-09-29T06:04:31;96769.97;;;3.86;93.89
59106;BME280;44891;50.204;8.132;2022-09-29T06:08:36;96767.13;;;3.99;92.52
59106;BME280;44891;50.204;8.132;2022-09-29T06:12:39;96768.81;;;4.22;91.76
59106;BME280;44891;50.204;8.132;2022-09-29T06:16:41;96771.81;;;4.14;93.08
59106;BME280;44891;50.204;8.132;2022-09-29T06:20:44;96773.81;;;4.23;94.44
59106;BME280;44891;50.204;8.132;2022-09-29T06:24:48;96776.72;;;4.27;95.38
59106;BME280;44891;50.204;8.132;2022-09-29T06:28:51;96760.16;;;4.45;93.98
59106;BME280;44891;50.204;8.132;2022-09-29T06:32:54;96768.03;;;4.50;92.44
59106;BME280;44891;50.204;8.132;2022-09-29T06:36:56;96771.72;;;4.37;94.08
59106;BME280;44891;50.204;8.132;2022-09-29T06:41:17;96773.22;;;4.50;93.48
59106;BME280;44891;50.204;8.132;2022-09-29T06:45:20;96780.09;;;4.56;94.76
59106;BME280;44891;50.204;8.132;2022-09-29T06:49:23;96778.44;;;4.67;95.55
59106;BME280;44891;50.204;8.132;2022-09-29T06:53:25;96785.69;;;4.81;95.97
59106;BME280;44891;50.204;8.132;2022-09-29T06:57:28;96785.00;;;5.03;96.25
59106;BME280;44891;50.204;8.132;2022-09-29T07:01:30;96784.63;;;5.33;94.39
59106;BME280;44891;50.204;8.132;2022-09-29T07:05:33;96790.84;;;5.49;94.22
59106;BME280;44891;50.204;8.132;2022-09-29T07:09:35;96791.56;;;5.44;94.99
59106;BME280;44891;50.204;8.132;2022-09-29T07:13:39;96787.69;;;5.46;95.70
59106;BME280;44891;50.204;8.132;2022-09-29T07:17:41;96785.69;;;5.92;94.88
59106;BME280;44891;50.204;8.132;2022-09-29T07:21:43;96785.91;;;6.35;93.74
59106;BME280;44891;50.204;8.132;2022-09-29T07:25:45;96788.88;;;6.75;91.88
59106;BME280;44891;50.204;8.132;2022-09-29T07:29:48;96794.53;;;6.99;90.99
59106;BME280;44891;50.204;8.132;2022-09-29T07:33:51;96784.53;;;7.23;90.47
59106;BME280;44891;50.204;8.132;2022-09-29T07:37:53;96789.94;;;7.54;89.60
59106;BME280;44891;50.204;8.132;2022-09-29T07:41:55;96800.19;;;7.71;88.99
59106;BME280;44891;50.204;8.132;2022-09-29T07:45:59;96795.09;;;7.96;88.47
59106;BME280;44891;50.204;8.132;2022-09-29T07:50:02;96800.94;;;8.24;88.54
59106;BME280;44891;50.204;8.132;2022-09-29T07:54:04;96811.97;;;8.36;88.82
59106;BME280;44891;50.204;8.132;2022-09-29T07:58:07;96813.59;;;8.62;88.24
59106;BME280;44891;50.204;8.132;2022-09-29T08:02:10;96820.44;;;8.79;88.31
59106;BME280;44891;50.204;8.132;2022-09-29T08:06:12;96811.81;;;9.09;87.30
59106;BME280;44891;50.204;8.132;2022-09-29T08:10:14;96813.63;;;9.34;86.99
59106;BME280;44891;50.204;8.132;2022-09-29T08:14:16;96817.28;;;9.48;85.76
59106;BME280;44891;50.204;8.132;2022-09-29T08:18:19;96824.31;;;9.63;85.87
59106;BME280;44891;50.204;8.132;2022-09-29T08:22:22;96830.06;;;9.70;85.07
59106;BME280;44891;50.204;8.132;2022-09-29T08:26:24;96827.91;;;9.97;84.32
59106;BME280;44891;50.204;8.132;2022-09-29T08:30:26;96829.13;;;10.10;84.69
59106;BME280;44891;50.204;8.132;2022-09-29T08:34:29;96839.63;;;10.15;84.33
59106;BME280;44891;50.204;8.132;2022-09-29T08:38:31;96834.88;;;10.22;83.82
59106;BME280;44891;50.204;8.132;2022-09-29T08:42:44;96842.97;;;10.36;83.49
59106;BME280;44891;50.204;8.132;2022-09-29T08:46:52;96843.53;;;10.33;83.00
59106;BME280;44891;50.204;8.132;2022-09-29T08:50:59;96840.50;;;10.60;82.71
59106;BME280;44891;50.204;8.132;2022-09-29T08:55:18;96841.41;;;10.79;82.25
59106;BME280;44891;50.204;8.132;2022-09-29T08:59:22;96848.88;;;11.01;80.83
59106;BME280;44891;50.204;8.132;2022-09-29T09:03:45;96846.25;;;11.35;79.80
59106;BME280;44891;50.204;8.132;2022-09-29T09:08:02;96850.28;;;11.86;79.80
59106;BME280;44891;50.204;8.132;2022-09-29T09:12:19;96850.63;;;12.03;77.74
59106;BME280;44891;50.204;8.132;2022-09-29T09:16:30;96858.28;;;12.00;75.93
59106;BME280;44891;50.204;8.132;2022-09-29T09:20:35;96848.59;;;12.19;74.90
59106;BME280;44891;50.204;8.132;2022-09-29T09:24:47;96854.22;;;12.31;75.14
59106;BME280;44891;50.204;8.132;2022-09-29T09:28:52;96855.63;;;12.66;74.52
59106;BME280;44891;50.204;8.132;2022-09-29T09:32:59;96859.09;;;12.99;71.38
59106;BME280;44891;50.204;8.132;2022-09-29T09:37:04;96852.53;;;13.16;66.52
59106;BME280;44891;50.204;8.132;2022-09-29T09:41:08;96859.44;;;13.12;63.18
59106;BME280;44891;50.204;8.132;2022-09-29T09:45:15;96858.91;;;12.96;64.18
59106;BME280;44891;50.204;8.132;2022-09-29T09:49:22;96860.41;;;13.21;61.88
59106;BME280;44891;50.204;8.132;2022-09-29T09:53:33;96866.53;;;13.49;62.78
59106;BME280;44891;50.204;8.132;2022-09-29T09:58:11;96866.13;;;13.42;61.34
59106;BME280;44891;50.204;8.132;2022-09-29T10:02:23;96838.72;;;13.24;61.79
59106;BME280;44891;50.204;8.132;2022-09-29T10:06:25;96860.09;;;13.55;61.46
59106;BME280;44891;50.204;8.132;2022-09-29T10:10:28;96867.63;;;13.62;60.72
59106;BME280;44891;50.204;8.132;2022-09-29T10:14:33;96866.59;;;14.04;61.46
59106;BME280;44891;50.204;8.132;2022-09-29T10:18:38;96870.31;;;14.30;60.87
59106;BME280;44891;50.204;8.132;2022-09-29T10:22:41;96878.06;;;14.13;58.25
59106;BME280;44891;50.204;8.132;2022-09-29T10:26:45;96878.44;;;14.06;58.67
59106;BME280;44891;50.204;8.132;2022-09-29T10:30:50;96879.31;;;13.88;60.45
59106;BME280;44891;50.204;8.132;2022-09-29T10:35:04;96882.03;;;14.10;60.78
59106;BME280;44891;50.204;8.132;2022-09-29T10:39:29;96872.66;;;14.04;58.50
59106;BME280;44891;50.204;8.132;2022-09-29T10:43:35;96885.00;;;14.09;60.49
59106;BME280;44891;50.204;8.132;2022-09-29T10:47:40;96890.19;;;14.00;57.39
59106;BME280;44891;50.204;8.132;2022-09-29T10:51:51;96890.34;;;14.45;55.47
59106;BME280;44891;50.204;8.132;2022-09-29T10:55:55;96889.69;;;14.67;55.38
59106;BME280;44891;50.204;8.132;2022-09-29T10:59:59;96885.28;;;14.62;54.44
59106;BME280;44891;50.204;8.132;2022-09-29T11:04:06;96892.44;;;14.48;55.86
59106;BME280;44891;50.204;8.132;2022-09-29T11:08:15;96889.81;;;14.84;55.04
59106;BME280;44891;50.204;8.132;2022-09-29T11:12:26;96893.72;;;15.45;54.47
59106;BME280;44891;50.204;8.132;2022-09-29T11:16:31;96898.38;;;15.62;52.20
59106;BME280;44891;50.204;8.132;2022-09-29T11:20:35;96894.03;;;15.66;53.11
59106;BME280;44891;50.204;8.132;2022-09-29T11:24:50;96894.84;;;15.98;52.26
59106;BME280;44891;50.204;8.132;2022-09-29T11:29:09;96897.03;;;16.44;50.78
59106;BME280;44891;50.204;8.132;2022-09-29T11:33:25;96902.53;;;15.18;53.50
59106;BME280;44891;50.204;8.132;2022-09-29T11:37:39;96900.13;;;14.45;53.96
59106;BME280;44891;50.204;8.132;2022-09-29T11:41:57;96907.00;;;14.59;57.13
59106;BME280;44891;50.204;8.132;2022-09-29T11:46:10;96911.91;;;14.66;57.55
59106;BME280;44891;50.204;8.132;2022-09-29T11:50:25;96902.41;;;14.51;58.05
59106;BME280;44891;50.204;8.132;2022-09-29T11:54:47;96913.53;;;14.76;58.35
59106;BME280;44891;50.204;8.132;2022-09-29T11:59:08;96909.69;;;15.18;58.06
59106;BME280;44891;50.204;8.132;2022-09-29T12:03:22;96916.19;;;15.12;57.45
59106;BME280;44891;50.204;8.132;2022-09-29T12:07:36;96910.25;;;15.29;57.52
59106;BME280;44891;50.204;8.132;2022-09-29T12:11:53;96912.72;;;15.92;53.11
59106;BME280;44891;50.204;8.132;2022-09-29T12:16:03;96902.88;;;16.90;51.13
59106;BME280;44891;50.204;8.132;2022-09-29T12:20:16;96899.06;;;16.56;51.42
59106;BME280;44891;50.204;8.132;2022-09-29T12:24:33;96905.56;;;17.33;50.14
59106;BME280;44891;50.204;8.132;2022-09-29T12:28:41;96904.69;;;20.10;45.00
59106;BME280;44891;50.204;8.132;2022-09-29T12:32:49;96905.59;;;20.02;43.70
59106;BME280;44891;50.204;8.132;2022-09-29T12:36:57;96907.72;;;18.80;43.78
59106;BME280;44891;50.204;8.132;2022-09-29T12:41:10;96917.56;;;16.96;47.59
59106;BME280;44891;50.204;8.132;2022-09-29T12:45:22;96904.84;;;16.10;50.00
59106;BME280;44891;50.204;8.132;2022-09-29T12:49:32;96897.94;;;16.40;51.33
59106;BME280;44891;50.204;8.132;2022-09-29T12:53:39;96910.59;;;19.17;44.25
59106;BME280;44891;50.204;8.132;2022-09-29T12:57:45;96902.38;;;18.89;44.46
59106;BME280;44891;50.204;8.132;2022-09-29T13:01:53;96913.16;;;17.78;46.15
59106;BME280;44891;50.204;8.132;2022-09-29T13:06:15;96903.66;;;17.77;47.79
59106;BME280;44891;50.204;8.132;2022-09-29T13:10:29;96906.94;;;18.80;45.33
59106;BME280;44891;50.204;8.132;2022-09-29T13:19:37;96916.09;;;19.33;42.46
59106;BME280;44891;50.204;8.132;2022-09-29T13:23:57;96907.47;;;18.73;43.41
59106;BME280;44891;50.204;8.132;2022-09-29T13:28:03;96897.75;;;17.45;45.56
59106;BME280;44891;50.204;8.132;2022-09-29T13:32:14;96913.16;;;16.82;47.42
59106;BME280;44891;50.204;8.132;2022-09-29T13:36:24;96915.84;;;16.34;49.86
59106;BME280;44891;50.204;8.132;2022-09-29T13:40:29;96909.28;;;15.92;50.76
59106;BME280;44891;50.204;8.132;2022-09-29T13:44:31;96918.13;;;16.18;50.63
59106;BME280;44891;50.204;8.132;2022-09-29T13:48:45;96921.06;;;16.65;50.63
59106;BME280;44891;50.204;8.132;2022-09-29T13:52:52;96925.78;;;19.58;43.90
59106;BME280;44891;50.204;8.132;2022-09-29T13:57:05;96930.06;;;25.86;32.79
59106;BME280;44891;50.204;8.132;2022-09-29T14:01:09;96927.09;;;33.07;23.72
59106;BME280;44891;50.204;8.132;2022-09-29T14:09:55;96932.84;;;26.38;28.94
59106;BME280;44891;50.204;8.132;2022-09-29T14:14:00;96943.00;;;22.95;34.90
59106;BME280;44891;50.204;8.132;2022-09-29T14:18:12;96945.84;;;20.46;37.81
59106;BME280;44891;50.204;8.132;2022-09-29T14:22:53;96943.09;;;19.01;41.92
59106;BME280;44891;50.204;8.132;2022-09-29T14:27:18;96940.34;;;19.73;40.92
59106;BME280;44891;50.204;8.132;2022-09-29T14:31:21;96935.97;;;18.64;42.73
59106;BME280;44891;50.204;8.132;2022-09-29T14:35:28;96947.38;;;17.71;44.32
59106;BME280;44891;50.204;8.132;2022-09-29T14:39:32;96952.69;;;18.64;44.54
59106;BME280;44891;50.204;8.132;2022-09-29T14:43:38;96944.28;;;20.57;39.88
59106;BME280;44891;50.204;8.132;2022-09-29T14:47:45;96956.38;;;19.31;40.73
59106;BME280;44891;50.204;8.132;2022-09-29T14:52:16;96959.22;;;17.12;46.23
59106;BME280;44891;50.204;8.132;2022-09-29T14:56:39;96964.53;;;17.82;47.27
59106;BME280;44891;50.204;8.132;2022-09-29T15:00:57;96959.56;;;17.37;46.37
59106;BME280;44891;50.204;8.132;2022-09-29T15:05:11;96960.00;;;16.56;47.63
59106;BME280;44891;50.204;8.132;2022-09-29T15:09:16;96964.31;;;16.43;49.33
59106;BME280;44891;50.204;8.132;2022-09-29T15:13:23;96966.72;;;16.14;48.25
59106;BME280;44891;50.204;8.132;2022-09-29T15:17:42;96970.06;;;15.74;48.66
59106;BME280;44891;50.204;8.132;2022-09-29T15:21:54;96975.94;;;15.13;51.59
59106;BME280;44891;50.204;8.132;2022-09-29T15:25:58;96972.06;;;14.69;53.63
59106;BME280;44891;50.204;8.132;2022-09-29T15:30:00;96980.81;;;14.23;55.97
59106;BME280;44891;50.204;8.132;2022-09-29T15:34:08;96981.25;;;13.98;57.69
59106;BME280;44891;50.204;8.132;2022-09-29T15:38:27;96969.66;;;13.80;57.61
59106;BME280;44891;50.204;8.132;2022-09-29T15:42:36;96980.41;;;13.51;60.53
59106;BME280;44891;50.204;8.132;2022-09-29T15:46:46;96982.38;;;13.78;57.18
59106;BME280;44891;50.204;8.132;2022-09-29T15:50:51;96988.69;;;13.63;60.33
59106;BME280;44891;50.204;8.132;2022-09-29T15:54:55;96996.97;;;13.56;62.25
59106;BME280;44891;50.204;8.132;2022-09-29T15:58:57;96998.09;;;13.31;63.08
59106;BME280;44891;50.204;8.132;2022-09-29T16:03:04;97017.88;;;13.10;64.02
59106;BME280;44891;50.204;8.132;2022-09-29T16:07:16;97016.19;;;12.76;64.53
59106;BME280;44891;50.204;8.132;2022-09-29T16:11:21;97020.47;;;12.67;64.88
59106;BME280;44891;50.204;8.132;2022-09-29T16:15:29;97029.03;;;12.54;65.26
59106;BME280;44891;50.204;8.132;2022-09-29T16:19:32;97034.63;;;12.47;65.78
59106;BME280;44891;50.204;8.132;2022-09-29T16:23:41;97042.88;;;12.41;65.74
59106;BME280;44891;50.204;8.132;2022-09-29T16:27:51;97040.34;;;12.31;66.59
59106;BME280;44891;50.204;8.132;2022-09-29T16:31:55;97051.38;;;12.33;67.13
59106;BME280;44891;50.204;8.132;2022-09-29T16:36:01;97048.09;;;12.17;68.29
59106;BME280;44891;50.204;8.132;2022-09-29T16:40:16;97056.63;;;12.04;68.49
59106;BME280;44891;50.204;8.132;2022-09-29T16:44:26;97065.75;;;11.82;69.35
59106;BME280;44891;50.204;8.132;2022-09-29T16:48:31;97071.28;;;11.76;70.56
59106;BME280;44891;50.204;8.132;2022-09-29T16:52:42;97083.81;;;11.44;73.04
59106;BME280;44891;50.204;8.132;2022-09-29T16:56:47;97092.78;;;11.38;74.22
59106;BME280;44891;50.204;8.132;2022-09-29T17:00:50;97094.34;;;11.39;74.49
59106;BME280;44891;50.204;8.132;2022-09-29T17:04:53;97098.13;;;11.23;74.30
59106;BME280;44891;50.204;8.132;2022-09-29T17:08:55;97104.94;;;11.24;74.08
59106;BME280;44891;50.204;8.132;2022-09-29T17:13:00;97104.72;;;11.10;74.00
59106;BME280;44891;50.204;8.132;2022-09-29T17:17:02;97100.00;;;11.02;75.04
59106;BME280;44891;50.204;8.132;2022-09-29T17:21:04;97111.59;;;10.96;76.24
59106;BME280;44891;50.204;8.132;2022-09-29T17:25:06;97113.97;;;10.82;77.01
59106;BME280;44891;50.204;8.132;2022-09-29T17:29:11;97117.22;;;10.44;80.28
59106;BME280;44891;50.204;8.132;2022-09-29T17:33:14;97116.13;;;10.55;79.02
59106;BME280;44891;50.204;8.132;2022-09-29T17:37:17;97128.47;;;10.29;82.05
59106;BME280;44891;50.204;8.132;2022-09-29T17:41:19;97136.38;;;10.24;81.56
59106;BME280;44891;50.204;8.132;2022-09-29T17:45:23;97142.06;;;10.00;82.25
59106;BME280;44891;50.204;8.132;2022-09-29T17:49:26;97139.16;;;9.87;83.43
59106;BME280;44891;50.204;8.132;2022-09-29T17:53:29;97141.28;;;9.85;83.89
59106;BME280;44891;50.204;8.132;2022-09-29T17:57:31;97156.94;;;9.64;85.46
59106;BME280;44891;50.204;8.132;2022-09-29T18:01:35;97144.78;;;9.38;86.60
59106;BME280;44891;50.204;8.132;2022-09-29T18:05:39;97160.50;;;9.43;86.53
59106;BME280;44891;50.204;8.132;2022-09-29T18:09:42;97164.94;;;9.37;86.61
59106;BME280;44891;50.204;8.132;2022-09-29T18:13:44;97159.94;;;9.31;86.88
59106;BME280;44891;50.204;8.132;2022-09-29T18:17:48;97170.09;;;9.12;87.16
59106;BME280;44891;50.204;8.132;2022-09-29T18:21:50;97162.56;;;8.78;89.39
59106;BME280;44891;50.204;8.132;2022-09-29T18:25:52;97168.81;;;8.77;89.24
59106;BME280;44891;50.204;8.132;2022-09-29T18:29:55;97174.25;;;8.65;89.97
59106;BME280;44891;50.204;8.132;2022-09-29T18:33:58;97174.81;;;8.78;88.60
59106;BME280;44891;50.204;8.132;2022-09-29T18:38:01;97169.59;;;8.78;88.26
59106;BME280;44891;50.204;8.132;2022-09-29T18:42:03;97178.50;;;8.77;88.29
59106;BME280;44891;50.204;8.132;2022-09-29T18:46:05;97186.72;;;8.53;89.06
59106;BME280;44891;50.204;8.132;2022-09-29T18:50:13;97190.06;;;8.49;89.48
59106;BME280;44891;50.204;8.132;2022-09-29T18:54:16;97189.59;;;8.30;90.50
59106;BME280;44891;50.204;8.132;2022-09-29T18:58:19;97200.72;;;8.15;91.69
59106;BME280;44891;50.204;8.132;2022-09-29T19:02:21;97206.28;;;8.24;90.21
59106;BME280;44891;50.204;8.132;2022-09-29T19:06:27;97209.00;;;8.07;90.32
59106;BME280;44891;50.204;8.132;2022-09-29T19:10:31;97234.00;;;7.98;91.06
59106;BME280;44891;50.204;8.132;2022-09-29T19:14:35;97231.28;;;7.87;91.66
59106;BME280;44891;50.204;8.132;2022-09-29T19:18:37;97238.09;;;7.88;91.13
59106;BME280;44891;50.204;8.132;2022-09-29T19:22:41;97238.47;;;7.75;91.91
59106;BME280;44891;50.204;8.132;2022-09-29T19:26:43;97249.84;;;7.86;91.01
59106;BME280;44891;50.204;8.132;2022-09-29T19:30:45;97249.94;;;7.96;90.78
59106;BME280;44891;50.204;8.132;2022-09-29T19:34:48;97257.78;;;7.96;91.15
59106;BME280;44891;50.204;8.132;2022-09-29T19:38:52;97256.50;;;7.99;91.81
59106;BME280;44891;50.204;8.132;2022-09-29T19:42:54;97262.91;;;7.86;92.87
59106;BME280;44891;50.204;8.132;2022-09-29T19:46:58;97268.72;;;7.71;93.92
59106;BME280;44891;50.204;8.132;2022-09-29T19:51:01;97276.63;;;7.54;94.41
59106;BME280;44891;50.204;8.132;2022-09-29T19:55:22;97281.16;;;7.64;93.79
59106;BME280;44891;50.204;8.132;2022-09-29T19:59:27;97284.03;;;7.62;93.58
59106;BME280;44891;50.204;8.132;2022-09-29T20:03:31;97283.06;;;7.47;93.41
59106;BME280;44891;50.204;8.132;2022-09-29T20:07:33;97274.72;;;7.50;93.72
59106;BME280;44891;50.204;8.132;2022-09-29T20:11:37;97297.16;;;7.68;93.16
59106;BME280;44891;50.204;8.132;2022-09-29T20:15:40;97291.25;;;7.55;92.75
59106;BME280;44891;50.204;8.132;2022-09-29T20:19:46;97298.06;;;7.56;92.85
59106;BME280;44891;50.204;8.132;2022-09-29T20:23:48;97305.81;;;7.51;92.67
59106;BME280;44891;50.204;8.132;2022-09-29T20:27:51;97271.59;;;7.31;92.02
59106;BME280;44891;50.204;8.132;2022-09-29T20:31:55;97312.13;;;7.17;92.83
59106;BME280;44891;50.204;8.132;2022-09-29T20:35:58;97194.38;;;6.63;92.26
59106;BME280;44891;50.204;8.132;2022-09-29T20:40:01;97314.56;;;7.40;92.39
59106;BME280;44891;50.204;8.132;2022-09-29T20:44:04;97311.16;;;7.23;92.73
59106;BME280;44891;50.204;8.132;2022-09-29T20:48:06;97307.69;;;7.17;92.95
59106;BME280;44891;50.204;8.132;2022-09-29T20:52:10;97317.97;;;7.24;92.70
59106;BME280;44891;50.204;8.132;2022-09-29T20:56:13;97317.66;;;7.03;92.88
59106;BME280;44891;50.204;8.132;2022-09-29T21:00:25;97325.38;;;6.98;93.50
59106;BME280;44891;50.204;8.132;2022-09-29T21:04:27;97315.25;;;6.68;93.90
59106;BME280;44891;50.204;8.132;2022-09-29T21:08:29;97329.81;;;6.81;93.93
59106;BME280;44891;50.204;8.132;2022-09-29T21:12:32;97321.84;;;6.88;92.60
59106;BME280;44891;50.204;8.132;2022-09-29T21:16:36;97332.91;;;6.49;93.46
59106;BME280;44891;50.204;8.132;2022-09-29T21:20:39;97356.28;;;6.73;92.35
59106;BME280;44891;50.204;8.132;2022-09-29T21:24:41;97351.06;;;6.73;92.24
59106;BME280;44891;50.204;8.132;2022-09-29T21:28:47;97356.28;;;6.73;93.12
59106;BME280;44891;50.204;8.132;2022-09-29T21:32:51;97349.09;;;6.80;92.98
59106;BME280;44891;50.204;8.132;2022-09-29T21:36:53;97353.66;;;6.73;93.28
59106;BME280;44891;50.204;8.132;2022-09-29T21:41:02;97361.88;;;6.36;93.42
59106;BME280;44891;50.204;8.132;2022-09-29T21:45:06;97352.53;;;6.12;92.68
59106;BME280;44891;50.204;8.132;2022-09-29T21:49:12;97345.97;;;5.86;94.05
59106;BME280;44891;50.204;8.132;2022-09-29T21:53:15;97329.75;;;6.07;94.40
59106;BME280;44891;50.204;8.132;2022-09-29T21:57:18;97365.06;;;6.26;94.08
59106;BME280;44891;50.204;8.132;2022-09-29T22:01:20;97373.13;;;6.25;93.92
59106;BME280;44891;50.204;8.132;2022-09-29T22:05:23;97380.03;;;6.19;92.90